PWSweather.com
Personal Weather Stations
Station Observations
IMAZOWIE6
WarszawaPL

WarszawaPL

Lat: 52.27957, Lon: 21.05489

Elevation: 100

Station Type: WS1080

http://stacjapogody.waw.pl/

Latest ConditionsUpdated 4:50:08 AM GMT+01:01 Monday, Feb 20, 2017
Currently Today's Max Today's Min Today's Average
Temperature 37.4°F3.0°C 37.4°F3.0°C 35.1°F1.7°C 36.1°F2.3°C
Dew Point 2.8°F-16.2°C 10.9°F-11.7°C 2.8°F-16.2°C 8.8°F-12.9°C
Winds 2.8 mph N4.5 kmh N 2.8 mph 4.5 kmh - 1.9 mph 3.1 kmh
Wind Gusts 4.8 mph7.7 kmh 6.2 mph10.0 kmh - -
Humidity 23% 36% 23% 32%
Pressure 29.58 in1001.7 mb 29.62 in1003.0 mb 29.57 in1001.4 mb -
Hour Temp Dew Point Humidity Winds Wind Gusts Pressure Precip Precip Rate Daily Precip Total
04:50 AM 37.4°F3.0°C 2.8°F-16.2°C 23% 2.8 mph N4.5 kmh N 4.8 mph7.7 kmh 29.58 in1001.7 mb 0.00 in0.0 mm 0.00 in0.0 mm 0.00 in0.0 mm
04:35 AM 37.2°F2.9°C 3.5°F-15.8°C 24% 1.4 mph N2.3 kmh N 2.8 mph4.5 kmh 29.58 in1001.7 mb 0.00 in0.0 mm 0.00 in0.0 mm 0.00 in0.0 mm
04:20 AM 37.0°F2.8°C 4.2°F-15.4°C 25% 2.8 mph N4.5 kmh N 4.0 mph6.4 kmh 29.58 in1001.7 mb 0.00 in0.0 mm 0.00 in0.0 mm 0.00 in0.0 mm
04:05 AM 36.9°F2.7°C 5.8°F-14.6°C 27% 2.0 mph N3.2 kmh N 4.0 mph6.4 kmh 29.57 in1001.4 mb 0.00 in0.0 mm 0.00 in0.0 mm 0.00 in0.0 mm
03:50 AM 36.7°F2.6°C 7.2°F-13.8°C 29% 2.8 mph N4.5 kmh N 4.8 mph7.7 kmh 29.57 in1001.4 mb 0.00 in0.0 mm 0.00 in0.0 mm 0.00 in0.0 mm
03:35 AM 36.5°F2.5°C 9.9°F-12.3°C 33% 2.0 mph N3.2 kmh N 4.8 mph7.7 kmh 29.58 in1001.7 mb 0.00 in0.0 mm 0.00 in0.0 mm 0.00 in0.0 mm
03:20 AM 35.8°F2.1°C 10.6°F-11.9°C 35% 2.8 mph N4.5 kmh N 4.0 mph6.4 kmh 29.58 in1001.7 mb 0.00 in0.0 mm 0.00 in0.0 mm 0.00 in0.0 mm
03:05 AM 35.4°F1.9°C 10.9°F-11.7°C 36% 2.0 mph N3.2 kmh N 4.0 mph6.4 kmh 29.58 in1001.7 mb 0.00 in0.0 mm 0.00 in0.0 mm 0.00 in0.0 mm
02:50 AM 35.4°F1.9°C 10.9°F-11.7°C 36% 1.4 mph N2.3 kmh N 4.0 mph6.4 kmh 29.59 in1002.0 mb 0.00 in0.0 mm 0.00 in0.0 mm 0.00 in0.0 mm
02:35 AM 35.2°F1.8°C 10.7°F-11.8°C 36% 1.4 mph N2.3 kmh N 3.4 mph5.5 kmh 29.59 in1002.0 mb 0.00 in0.0 mm 0.00 in0.0 mm 0.00 in0.0 mm
02:20 AM 35.1°F1.7°C 9.9°F-12.3°C 35% 0.6 mph N1.0 kmh N 2.0 mph3.2 kmh 29.60 in1002.4 mb 0.00 in0.0 mm 0.00 in0.0 mm 0.00 in0.0 mm
02:05 AM 35.2°F1.8°C 10.1°F-12.2°C 35% 1.4 mph N2.3 kmh N 2.8 mph4.5 kmh 29.61 in1002.7 mb 0.00 in0.0 mm 0.00 in0.0 mm 0.00 in0.0 mm
01:50 AM 35.4°F1.9°C 10.2°F-12.1°C 35% 1.4 mph N2.3 kmh N 2.8 mph4.5 kmh 29.61 in1002.7 mb 0.00 in0.0 mm 0.00 in0.0 mm 0.00 in0.0 mm
01:35 AM 36.0°F2.2°C 10.1°F-12.2°C 34% 1.4 mph N2.3 kmh N 3.4 mph5.5 kmh 29.61 in1002.7 mb 0.00 in0.0 mm 0.00 in0.0 mm 0.00 in0.0 mm
01:20 AM 36.0°F2.2°C 10.1°F-12.2°C 34% 1.4 mph N2.3 kmh N 2.8 mph4.5 kmh 29.61 in1002.7 mb 0.00 in0.0 mm 0.00 in0.0 mm 0.00 in0.0 mm
01:05 AM 36.0°F2.2°C 10.1°F-12.2°C 34% 2.0 mph N3.2 kmh N 4.8 mph7.7 kmh 29.62 in1003.0 mb 0.00 in0.0 mm 0.00 in0.0 mm 0.00 in0.0 mm
12:50 AM 35.8°F2.1°C 9.9°F-12.3°C 34% 1.4 mph N2.3 kmh N 2.8 mph4.5 kmh 29.62 in1003.0 mb 0.00 in0.0 mm 0.00 in0.0 mm 0.00 in0.0 mm
12:35 AM 36.0°F2.2°C 9.4°F-12.6°C 33% 2.8 mph N4.5 kmh N 4.8 mph7.7 kmh 29.62 in1003.0 mb 0.00 in0.0 mm 0.00 in0.0 mm 0.00 in0.0 mm
12:20 AM 36.1°F2.3°C 10.2°F-12.1°C 34% 2.0 mph N3.2 kmh N 4.8 mph7.7 kmh 29.62 in1003.0 mb 0.00 in0.0 mm 0.00 in0.0 mm 0.00 in0.0 mm
12:05 AM 36.0°F2.2°C 9.4°F-12.6°C 33% 2.0 mph N3.2 kmh N 6.2 mph10.0 kmh 29.62 in1003.0 mb 0.00 in0.0 mm 0.00 in0.0 mm 0.00 in0.0 mm